Turkmenabat Airport
UTAV : now visible

Airfield :











YOU CAN JOIN US ON...

 
LOGIN :

Register | Disclaimer

   EN    FR    IT 

 









Legend :    VFR   Marginal VFR   IFR   Intensive IFR   Very Intensive IFR
Visi :
Ceiling :
>= 8 km
>= 3000ft
5 to 8 km
1000 to 3000 ft
1500m to 5 km
500 to 1000 ft
800 to 1500m
200 to 500 ft
< 800m
< 200 ft
Symbols :   Thunderstorms  Fog  Heavy snow  Heavy precipitations  Wind > 20 kt







- Airport Elevation : 630 ft
- IATA code : CRZ


UTAV - Turkmenabat

CURRENT METAR :
  • 210600Z 28014KT 9999 FEW015CB BKN015 11/08 Q1017 NOSIG

EXPIRED METARs :
  • 210500Z 29014KT 9999 FEW010CB BKN010 11/08 Q1016 NOSIG
  • 210400Z 29014KT 9999 FEW010CB BKN010 11/09 Q1015 NOSIG

TAF TAF UTAV
Valid from the 21 at 06:00 until the 22 at 06:00 UTC


210430Z 2106/2206 30016KT 5000 BKN020 SCT030CB 530003
PROB40
TEMPO 2106/2109 VRB32KT 2000 TSSHRA BKN005
BECMG 2108/2110 26016KT 3000 BR BKN004
UTAV FIR / Asia



MET'MAP, your aeronautical weather chart ! - Copyright ORBIFLY December 2007 - Disclaimer

ORBIFLY MET'MAP TEAM :

Programming & Development : Alexandra Zaïnal
Concept & Development : Baudouin d'Aumeries
Co-Development & Prog : Marc-Olivier Méhu
Technical & hardware support : Manuel Goepfert

Contact : metmap@orbifly.com




SOURCES & CREDITS :

   NOAA       Earth
Advisory